createdAt,value
2022-10-26T00:01:23.411Z,1.50
2022-10-26T00:03:51.922Z,1.80
2022-10-26T00:06:25.029Z,1.48
2022-10-26T00:08:53.310Z,1.70
2022-10-26T00:11:21.693Z,1.85
2022-10-26T00:13:50.546Z,1.67
2022-10-26T00:16:27.845Z,1.92
2022-10-26T00:18:56.841Z,1.70
2022-10-26T00:21:28.286Z,1.70
2022-10-26T00:23:57.324Z,1.60
2022-10-26T00:26:25.655Z,1.55
2022-10-26T00:28:56.104Z,2.05
2022-10-26T00:31:25.514Z,3.50
2022-10-26T00:33:55.780Z,2.90
2022-10-26T00:36:26.200Z,2.17
2022-10-26T00:38:56.583Z,2.42
2022-10-26T00:41:29.035Z,2.40
2022-10-26T00:43:57.763Z,1.80
2022-10-26T00:46:33.855Z,1.75
2022-10-26T00:49:13.575Z,1.77
2022-10-26T00:51:53.441Z,1.60
2022-10-26T00:54:24.014Z,1.75
2022-10-26T00:56:54.882Z,1.50
2022-10-26T00:59:23.833Z,1.50
2022-10-26T01:01:52.869Z,1.60
2022-10-26T01:04:21.217Z,1.65
2022-10-26T01:06:49.975Z,1.88
2022-10-26T01:09:21.984Z,1.70
2022-10-26T01:11:50.678Z,1.50
2022-10-26T01:14:20.830Z,1.52
2022-10-26T01:17:07.918Z,1.88
2022-10-26T01:20:18.495Z,1.92
2022-10-26T01:23:14.969Z,2.50
2022-10-26T01:26:15.382Z,1.70
2022-10-26T01:29:06.856Z,1.55
2022-10-26T01:31:42.616Z,1.90
2022-10-26T01:34:20.983Z,1.50
2022-10-26T01:36:57.057Z,1.80
2022-10-26T01:39:43.178Z,1.60
2022-10-26T01:42:16.349Z,1.50
2022-10-26T01:44:56.286Z,1.50
2022-10-26T01:47:24.929Z,1.50
2022-10-26T01:49:56.624Z,1.92
2022-10-26T01:52:25.170Z,1.88
2022-10-26T01:55:24.076Z,1.65
2022-10-26T01:57:54.357Z,1.83
2022-10-26T02:00:22.666Z,1.87
2022-10-26T02:03:21.502Z,1.50
2022-10-26T02:06:06.992Z,1.55
2022-10-26T02:09:01.249Z,2.00
2022-10-26T02:11:49.461Z,2.28
2022-10-26T02:14:40.136Z,1.80
2022-10-26T02:17:18.129Z,1.90
2022-10-26T02:19:59.712Z,2.08
2022-10-26T02:25:23.576Z,2.40
2022-10-26T02:27:58.152Z,5.43
2022-10-26T02:30:26.683Z,7.65
2022-10-26T02:32:57.691Z,4.45
2022-10-26T02:35:34.605Z,2.08
2022-10-26T02:38:08.804Z,1.90
2022-10-26T02:40:56.877Z,1.70
2022-10-26T02:43:53.315Z,1.77
2022-10-26T02:46:44.796Z,1.67
2022-10-26T02:49:13.313Z,1.58
2022-10-26T02:52:01.274Z,1.40
2022-10-26T02:54:45.990Z,1.50
2022-10-26T02:57:29.544Z,1.60
2022-10-26T02:59:59.904Z,1.80
2022-10-26T03:02:30.704Z,1.60
2022-10-26T03:05:21.472Z,1.60
2022-10-26T03:07:49.447Z,1.58
2022-10-26T03:10:17.842Z,1.60
2022-10-26T03:12:46.663Z,1.50
2022-10-26T03:15:16.009Z,2.00
2022-10-26T03:17:44.345Z,1.75
2022-10-26T03:20:12.500Z,2.10
2022-10-26T03:22:40.574Z,1.77
2022-10-26T03:27:42.759Z,1.60
2022-10-26T03:30:12.121Z,1.73
2022-10-26T03:32:39.913Z,1.60
2022-10-26T03:35:08.380Z,1.48
2022-10-26T03:37:37.434Z,1.90
2022-10-26T03:40:05.691Z,2.00
2022-10-26T03:42:37.690Z,3.38
2022-10-26T03:45:07.726Z,8.25
2022-10-26T03:47:42.828Z,7.90
2022-10-26T03:50:13.137Z,6.30
2022-10-26T03:52:42.068Z,5.07
2022-10-26T03:55:11.238Z,2.30
2022-10-26T03:57:46.189Z,2.40
2022-10-26T04:00:18.091Z,1.90
2022-10-26T04:02:54.206Z,2.08
2022-10-26T04:05:22.863Z,1.70
2022-10-26T04:08:04.715Z,1.88
2022-10-26T04:10:32.588Z,1.60
2022-10-26T04:13:01.418Z,2.80
2022-10-26T04:15:29.793Z,1.98
2022-10-26T04:18:02.288Z,1.90
2022-10-26T04:20:33.353Z,1.30
2022-10-26T04:23:07.161Z,1.42
2022-10-26T04:25:35.267Z,1.33
2022-10-26T04:28:06.009Z,1.85
2022-10-26T04:30:35.171Z,1.65
2022-10-26T04:33:04.586Z,1.90
2022-10-26T04:35:33.443Z,1.80
2022-10-26T04:38:06.150Z,1.52
2022-10-26T04:40:35.210Z,2.58
2022-10-26T04:43:03.247Z,3.90
2022-10-26T04:45:31.391Z,2.78
2022-10-26T04:48:14.204Z,2.63
2022-10-26T04:50:42.311Z,2.17
2022-10-26T04:53:10.860Z,2.17
2022-10-26T04:55:38.697Z,2.55
2022-10-26T04:58:08.323Z,2.80
2022-10-26T05:00:36.781Z,2.58
2022-10-26T05:03:07.223Z,2.33
2022-10-26T05:05:37.161Z,1.67
2022-10-26T05:08:06.640Z,1.60
2022-10-26T05:10:34.550Z,1.70
2022-10-26T05:13:02.985Z,1.77
2022-10-26T05:15:31.226Z,1.70
2022-10-26T05:18:03.138Z,1.55
2022-10-26T05:20:34.222Z,1.67
2022-10-26T05:23:05.994Z,1.65
2022-10-26T05:25:37.827Z,1.60
2022-10-26T05:28:09.823Z,1.70
2022-10-26T05:30:39.993Z,2.00
2022-10-26T05:33:11.162Z,1.55
2022-10-26T05:35:39.894Z,1.70
2022-10-26T05:38:33.805Z,1.80
2022-10-26T05:41:01.792Z,1.80
2022-10-26T05:43:30.313Z,1.90
2022-10-26T05:45:59.077Z,1.55
2022-10-26T05:48:27.125Z,1.67
2022-10-26T05:50:55.074Z,1.67
2022-10-26T05:53:22.769Z,2.30
2022-10-26T05:55:51.026Z,2.30
2022-10-26T05:58:19.351Z,5.40
2022-10-26T06:01:22.432Z,7.22
2022-10-26T06:04:02.732Z,15.68
2022-10-26T06:06:48.011Z,15.57
2022-10-26T06:09:16.683Z,10.77
2022-10-26T06:14:18.173Z,3.70
2022-10-26T06:17:34.648Z,13.63
2022-10-26T06:20:22.157Z,11.32
2022-10-26T06:23:19.987Z,8.93
2022-10-26T06:26:18.670Z,7.07
2022-10-26T06:29:19.322Z,5.38
2022-10-26T06:31:48.683Z,4.88
2022-10-26T06:34:28.814Z,5.95
2022-10-26T06:37:00.812Z,15.05
2022-10-26T06:39:35.216Z,20.23
2022-10-26T06:42:04.695Z,15.00
2022-10-26T06:44:33.881Z,9.80
2022-10-26T06:47:14.682Z,5.15
2022-10-26T06:50:16.929Z,4.50
2022-10-26T06:53:00.282Z,3.72
2022-10-26T06:55:45.617Z,2.55
2022-10-26T06:58:22.860Z,2.65
2022-10-26T07:00:55.345Z,2.60
2022-10-26T07:03:23.619Z,2.75
2022-10-26T07:05:52.528Z,2.65
2022-10-26T07:08:21.062Z,3.25
2022-10-26T07:10:49.238Z,2.50
2022-10-26T07:13:18.363Z,2.40
2022-10-26T07:15:46.643Z,2.20
2022-10-26T07:18:14.994Z,2.10
2022-10-26T07:20:43.212Z,2.40
2022-10-26T07:23:11.538Z,2.00
2022-10-26T07:25:40.651Z,2.75
2022-10-26T07:28:10.872Z,2.33
2022-10-26T07:30:40.358Z,2.30
2022-10-26T07:33:14.575Z,2.05
2022-10-26T07:35:42.460Z,2.63
2022-10-26T07:38:12.422Z,2.60
2022-10-26T07:40:40.527Z,2.20
2022-10-26T07:43:08.776Z,2.10
2022-10-26T07:45:36.833Z,2.42
2022-10-26T07:48:05.044Z,2.20
2022-10-26T07:50:33.236Z,1.98
2022-10-26T07:53:01.199Z,2.28
2022-10-26T07:55:29.097Z,2.10
2022-10-26T07:57:57.728Z,1.70
2022-10-26T08:00:26.095Z,2.05
2022-10-26T08:02:54.685Z,1.75
2022-10-26T08:05:23.357Z,1.70
2022-10-26T08:07:51.733Z,1.70
2022-10-26T08:10:20.105Z,1.90
2022-10-26T08:12:48.185Z,2.00
2022-10-26T08:15:16.409Z,2.08
2022-10-26T08:17:44.583Z,2.00
2022-10-26T08:20:12.807Z,2.03
2022-10-26T08:22:40.965Z,1.75
2022-10-26T08:25:09.601Z,1.80
2022-10-26T08:27:37.644Z,2.03
2022-10-26T08:30:09.558Z,2.05
2022-10-26T08:32:37.633Z,1.77
2022-10-26T08:35:06.316Z,2.00
2022-10-26T08:37:34.348Z,1.90
2022-10-26T08:40:04.636Z,1.58
2022-10-26T08:42:40.933Z,1.60
2022-10-26T08:45:37.140Z,2.08
2022-10-26T08:48:24.491Z,1.70
2022-10-26T08:50:56.956Z,1.70
2022-10-26T08:54:01.942Z,1.77
2022-10-26T08:56:40.703Z,1.83
2022-10-26T08:59:46.700Z,1.70
2022-10-26T09:02:18.001Z,2.00
2022-10-26T09:04:46.307Z,1.67
2022-10-26T09:07:29.905Z,2.10
2022-10-26T09:10:20.113Z,1.90
2022-10-26T09:13:18.231Z,1.95
2022-10-26T09:15:55.395Z,2.20
2022-10-26T09:19:08.958Z,2.05
2022-10-26T09:22:13.871Z,2.00
2022-10-26T09:24:54.973Z,1.92
2022-10-26T09:27:42.597Z,2.00
2022-10-26T09:30:19.127Z,1.73
2022-10-26T09:32:52.864Z,2.00
2022-10-26T09:38:17.166Z,1.70
2022-10-26T09:41:06.585Z,1.90
2022-10-26T09:43:43.762Z,2.00
2022-10-26T09:46:23.069Z,2.08
2022-10-26T09:49:04.777Z,1.67
2022-10-26T09:51:36.960Z,2.70
2022-10-26T09:54:21.763Z,2.30
2022-10-26T09:56:56.954Z,2.17
2022-10-26T09:59:26.739Z,1.83
2022-10-26T10:01:56.496Z,1.98
2022-10-26T10:04:24.983Z,1.75
2022-10-26T10:19:22.111Z,1.67
2022-10-26T10:21:55.754Z,1.60
2022-10-26T10:24:27.136Z,1.67
2022-10-26T10:27:15.738Z,1.65
2022-10-26T10:29:44.557Z,1.48
2022-10-26T10:32:22.747Z,1.60
2022-10-26T10:34:53.368Z,1.77
2022-10-26T10:37:32.362Z,1.50
2022-10-26T10:40:07.070Z,1.52
2022-10-26T10:42:43.154Z,1.60
2022-10-26T10:45:30.776Z,1.70
2022-10-26T10:48:18.876Z,1.75
2022-10-26T10:51:12.739Z,1.38
2022-10-26T10:53:51.162Z,1.92
2022-10-26T10:57:03.287Z,1.90
2022-10-26T11:03:19.193Z,1.33
2022-10-26T11:06:00.210Z,1.80
2022-10-26T11:08:42.914Z,1.52
2022-10-26T11:11:23.819Z,1.40
2022-10-26T11:14:13.889Z,1.60
2022-10-26T11:16:51.255Z,1.45
2022-10-26T11:20:04.965Z,1.63
2022-10-26T11:22:58.809Z,1.23
2022-10-26T11:25:53.078Z,1.30
2022-10-26T11:29:03.194Z,1.55
2022-10-26T11:31:44.197Z,1.50
2022-10-26T11:34:32.109Z,2.15
2022-10-26T11:37:22.756Z,1.70
2022-10-26T11:43:14.438Z,1.50
2022-10-26T11:45:51.402Z,1.25
2022-10-26T11:48:28.717Z,1.40
2022-10-26T11:50:59.753Z,1.75
2022-10-26T11:53:44.083Z,1.50
2022-10-26T11:56:34.247Z,1.50
2022-10-26T12:01:36.397Z,1.50
2022-10-26T12:04:04.679Z,1.63
2022-10-26T12:06:35.127Z,1.20
2022-10-26T12:09:16.653Z,1.73
2022-10-26T12:12:16.843Z,1.23
2022-10-26T12:15:10.373Z,1.60
2022-10-26T12:17:56.599Z,1.33
2022-10-26T12:20:52.976Z,1.55
2022-10-26T12:23:40.580Z,1.10
2022-10-26T12:26:25.262Z,1.50
2022-10-26T12:29:02.970Z,1.73
2022-10-26T12:31:39.670Z,1.70
2022-10-26T12:34:23.616Z,1.77
2022-10-26T12:36:55.959Z,1.52
2022-10-26T12:39:40.743Z,1.20
2022-10-26T12:42:08.929Z,1.42
2022-10-26T12:44:41.563Z,1.20
2022-10-26T12:47:30.861Z,1.15
2022-10-26T12:50:08.593Z,1.40
2022-10-26T12:52:54.215Z,1.80
2022-10-26T12:55:48.254Z,1.80
2022-10-26T12:58:26.250Z,1.40
2022-10-26T13:01:00.260Z,1.30
2022-10-26T13:03:35.344Z,1.52
2022-10-26T13:06:11.054Z,1.65
2022-10-26T13:09:23.875Z,1.35
2022-10-26T13:11:57.066Z,1.42
2022-10-26T13:14:35.731Z,1.38
2022-10-26T13:17:22.866Z,1.30
2022-10-26T13:20:05.799Z,1.67
2022-10-26T13:22:44.551Z,1.40
2022-10-26T13:25:29.531Z,1.40
2022-10-26T13:28:04.374Z,2.30
2022-10-26T13:30:43.289Z,1.40
2022-10-26T13:33:22.632Z,1.13
2022-10-26T13:35:56.265Z,1.33
2022-10-26T13:38:31.101Z,1.42
2022-10-26T13:41:13.505Z,1.40
2022-10-26T13:43:44.170Z,1.60
2022-10-26T13:46:27.011Z,1.35
2022-10-26T13:49:22.651Z,1.48
2022-10-26T13:51:53.548Z,1.20
2022-10-26T13:54:44.874Z,1.40
2022-10-26T13:57:43.682Z,1.42
2022-10-26T14:00:22.452Z,1.30
2022-10-26T14:02:50.763Z,1.23
2022-10-26T14:05:20.725Z,1.05
2022-10-26T14:07:58.697Z,1.25
2022-10-26T14:10:32.995Z,1.42
2022-10-26T14:13:01.687Z,1.40
2022-10-26T14:15:32.788Z,1.50
2022-10-26T14:18:04.104Z,1.15
2022-10-26T14:20:33.419Z,1.30
2022-10-26T14:23:01.780Z,1.40
2022-10-26T14:25:42.057Z,1.13
2022-10-26T14:28:32.203Z,1.40
2022-10-26T14:31:38.588Z,1.90
2022-10-26T14:34:13.034Z,1.40
2022-10-26T14:36:56.367Z,1.60
2022-10-26T14:39:49.289Z,1.67
2022-10-26T14:42:32.324Z,1.15
2022-10-26T14:45:02.029Z,1.30
2022-10-26T14:47:33.685Z,1.23
2022-10-26T14:50:02.841Z,1.38
2022-10-26T14:52:36.038Z,1.20
2022-10-26T14:55:16.996Z,1.42
2022-10-26T14:57:48.756Z,1.45
2022-10-26T15:00:26.317Z,1.15
2022-10-26T15:02:58.430Z,1.40
2022-10-26T15:05:35.793Z,1.27
2022-10-26T15:08:33.775Z,1.30
2022-10-26T15:11:15.248Z,1.10
2022-10-26T15:13:44.557Z,1.50
2022-10-26T15:16:25.859Z,1.60
2022-10-26T15:21:47.811Z,1.17
2022-10-26T15:24:38.777Z,1.38
2022-10-26T15:29:48.873Z,1.27
2022-10-26T15:32:21.850Z,1.08
2022-10-26T15:35:15.751Z,1.30
2022-10-26T15:37:44.556Z,1.25
2022-10-26T15:40:13.968Z,1.40
2022-10-26T15:42:45.318Z,1.38
2022-10-26T15:48:18.457Z,1.35
2022-10-26T15:50:47.597Z,1.65
2022-10-26T15:53:23.240Z,1.60
2022-10-26T15:55:54.840Z,1.67
2022-10-26T15:58:23.724Z,1.83
2022-10-26T16:00:53.486Z,1.60
2022-10-26T16:03:28.060Z,1.58
2022-10-26T16:06:01.037Z,2.00
2022-10-26T16:08:31.923Z,1.95
2022-10-26T16:11:00.712Z,2.00
2022-10-26T16:13:31.436Z,2.28
2022-10-26T16:15:59.833Z,2.10
2022-10-26T16:18:28.858Z,2.50
2022-10-26T16:20:57.152Z,2.30
2022-10-26T16:23:25.775Z,2.00
2022-10-26T16:25:54.303Z,1.80
2022-10-26T16:28:23.946Z,1.80
2022-10-26T16:31:03.584Z,2.38
2022-10-26T16:33:33.430Z,2.58
2022-10-26T16:36:04.036Z,3.20
2022-10-26T16:38:33.899Z,2.90
2022-10-26T16:41:07.396Z,3.28
2022-10-26T16:43:38.619Z,3.63
2022-10-26T16:46:12.793Z,4.68
2022-10-26T16:48:43.374Z,4.55
2022-10-26T16:51:20.632Z,6.35
2022-10-26T16:53:55.637Z,5.03
2022-10-26T16:56:29.332Z,4.13
2022-10-26T16:58:58.667Z,3.22
2022-10-26T17:01:28.249Z,3.42
2022-10-26T17:03:57.482Z,3.15
2022-10-26T17:06:26.551Z,2.90
2022-10-26T17:08:55.345Z,2.97
2022-10-26T17:11:24.541Z,3.42
2022-10-26T17:14:00.092Z,3.63
2022-10-26T17:16:29.314Z,3.58
2022-10-26T17:18:57.991Z,3.42
2022-10-26T17:21:34.314Z,2.60
2022-10-26T17:24:03.515Z,3.20
2022-10-26T17:26:33.085Z,2.58
2022-10-26T17:29:01.457Z,3.13
2022-10-26T17:31:30.503Z,2.95
2022-10-26T17:33:59.692Z,3.40
2022-10-26T17:36:28.532Z,3.30
2022-10-26T17:38:57.814Z,3.13
2022-10-26T17:41:29.115Z,3.03
2022-10-26T17:43:58.300Z,2.72
2022-10-26T17:46:28.430Z,3.38
2022-10-26T17:48:59.905Z,3.05
2022-10-26T17:51:29.527Z,2.80
2022-10-26T17:54:02.939Z,3.13
2022-10-26T17:56:35.253Z,3.22
2022-10-26T17:59:11.027Z,2.97
2022-10-26T18:01:40.900Z,3.13
2022-10-26T18:04:09.546Z,3.33
2022-10-26T18:06:38.745Z,3.33
2022-10-26T18:09:07.174Z,3.20
2022-10-26T18:11:37.805Z,2.92
2022-10-26T18:14:05.949Z,2.77
2022-10-26T18:16:34.421Z,2.70
2022-10-26T18:19:08.221Z,2.58
2022-10-26T18:21:37.822Z,2.33
2022-10-26T18:24:08.577Z,2.53
2022-10-26T18:26:38.245Z,2.70
2022-10-26T18:29:07.468Z,2.65
2022-10-26T18:31:37.348Z,3.28
2022-10-26T18:34:07.672Z,2.85
2022-10-26T18:39:08.440Z,3.10
2022-10-26T18:41:38.501Z,3.10
2022-10-26T18:44:06.840Z,2.95
2022-10-26T18:46:40.834Z,3.88
2022-10-26T18:49:11.061Z,3.92
2022-10-26T18:51:40.297Z,3.55
2022-10-26T18:54:13.215Z,3.97
2022-10-26T18:56:42.831Z,3.70
2022-10-26T18:59:13.759Z,3.92
2022-10-26T19:01:42.613Z,4.00
2022-10-26T19:04:12.780Z,4.43
2022-10-26T19:06:47.960Z,4.00
2022-10-26T19:09:18.941Z,3.70
2022-10-26T19:11:48.403Z,3.08
2022-10-26T19:14:17.394Z,3.15
2022-10-26T19:16:48.076Z,3.40
2022-10-26T19:19:18.710Z,3.60
2022-10-26T19:21:50.750Z,4.00
2022-10-26T19:24:23.067Z,3.72
2022-10-26T19:26:54.521Z,3.45
2022-10-26T19:29:23.268Z,3.03
2022-10-26T19:31:53.654Z,2.97
2022-10-26T19:34:22.174Z,3.35
2022-10-26T19:36:50.875Z,3.25
2022-10-26T19:39:21.183Z,3.47
2022-10-26T19:41:49.968Z,3.22
2022-10-26T19:44:24.502Z,3.13
2022-10-26T19:46:53.718Z,3.70
2022-10-26T19:49:23.076Z,3.30
2022-10-26T19:51:51.619Z,3.30
2022-10-26T19:54:20.177Z,3.10
2022-10-26T19:56:49.437Z,3.38
2022-10-26T19:59:19.630Z,3.38
2022-10-26T20:01:48.216Z,3.08
2022-10-26T20:04:18.541Z,3.30
2022-10-26T20:06:47.356Z,3.25
2022-10-26T20:11:46.632Z,3.28
2022-10-26T20:14:15.663Z,3.33
2022-10-26T20:16:44.471Z,3.00
2022-10-26T20:19:12.960Z,2.80
2022-10-26T20:21:41.719Z,2.60
2022-10-26T20:24:11.557Z,2.50
2022-10-26T20:26:40.324Z,2.30
2022-10-26T20:29:10.051Z,2.70
2022-10-26T20:31:40.397Z,2.30
2022-10-26T20:34:09.821Z,2.97
2022-10-26T20:36:38.162Z,2.90
2022-10-26T20:39:09.457Z,2.58
2022-10-26T20:41:46.402Z,2.50
2022-10-26T20:44:24.892Z,2.85
2022-10-26T20:46:53.689Z,2.80
2022-10-26T20:49:22.614Z,2.50
2022-10-26T20:52:25.748Z,3.03
2022-10-26T20:55:11.412Z,2.97
2022-10-26T20:57:48.373Z,2.70
2022-10-26T21:00:18.092Z,2.70
2022-10-26T21:02:47.240Z,2.88
2022-10-26T21:05:18.368Z,2.80
2022-10-26T21:07:46.339Z,2.60
2022-10-26T21:10:16.515Z,3.13
2022-10-26T21:12:45.637Z,3.70
2022-10-26T21:15:15.529Z,3.22
2022-10-26T21:17:43.991Z,4.00
2022-10-26T21:20:12.165Z,4.20
2022-10-26T21:22:40.399Z,3.55
2022-10-26T21:25:09.079Z,3.58
2022-10-26T21:27:37.460Z,3.72
2022-10-26T21:30:06.525Z,4.47
2022-10-26T21:35:05.573Z,4.30
2022-10-26T21:37:33.569Z,4.70
2022-10-26T21:40:01.625Z,4.25
2022-10-26T21:42:29.398Z,4.55
2022-10-26T21:44:57.288Z,4.25
2022-10-26T21:47:26.505Z,4.25
2022-10-26T21:49:54.326Z,4.75
2022-10-26T21:52:22.474Z,4.13
2022-10-26T21:54:50.531Z,4.18
2022-10-26T21:57:19.093Z,4.20
2022-10-26T21:59:46.925Z,4.30
2022-10-26T22:02:15.139Z,3.83
2022-10-26T22:04:45.187Z,3.75
2022-10-26T22:07:13.219Z,3.65
2022-10-26T22:09:55.131Z,3.38
2022-10-26T22:12:29.186Z,4.10
2022-10-26T22:14:57.368Z,3.80
2022-10-26T22:17:26.164Z,3.67
2022-10-26T22:19:54.482Z,3.75
2022-10-26T22:22:22.259Z,3.90
2022-10-26T22:24:52.652Z,3.63
2022-10-26T22:27:20.705Z,3.40
2022-10-26T22:29:49.159Z,3.45
2022-10-26T22:32:17.092Z,3.00
2022-10-26T22:34:45.345Z,3.15
2022-10-26T22:37:14.027Z,2.90
2022-10-26T22:39:42.025Z,2.88
2022-10-26T22:42:12.117Z,2.22
2022-10-26T22:44:40.408Z,2.03
2022-10-26T22:47:08.757Z,1.80
2022-10-26T22:49:36.531Z,2.65
2022-10-26T22:52:05.751Z,6.05
2022-10-26T22:54:33.508Z,3.90
2022-10-26T22:57:01.562Z,3.25
2022-10-26T22:59:29.551Z,2.97
2022-10-26T23:01:57.697Z,2.80
2022-10-26T23:04:25.725Z,2.83
2022-10-26T23:06:54.183Z,2.92
2022-10-26T23:09:22.164Z,2.90
2022-10-26T23:11:51.897Z,2.78
2022-10-26T23:14:20.007Z,2.75
2022-10-26T23:16:48.026Z,2.90
2022-10-26T23:19:16.836Z,2.65
2022-10-26T23:21:44.517Z,2.92
2022-10-26T23:24:12.347Z,2.65
2022-10-26T23:26:41.596Z,2.50
2022-10-26T23:29:09.669Z,2.80
2022-10-26T23:31:37.686Z,3.30
2022-10-26T23:34:05.867Z,2.78
2022-10-26T23:36:34.080Z,2.75
2022-10-26T23:39:01.861Z,3.15
2022-10-26T23:41:29.733Z,2.97
2022-10-26T23:43:57.647Z,3.22
2022-10-26T23:48:54.673Z,2.80
2022-10-26T23:51:22.753Z,2.45
2022-10-26T23:53:50.514Z,3.15
2022-10-26T23:56:18.282Z,3.22
2022-10-26T23:58:50.483Z,3.20
